Latest Weather Observations for Mangalore

IDV60801

Issued at 3:05 pm EDT Sunday 26 October 2014 (issued every 30 minutes, with the page automatically refreshed every 10 minutes)

About weather observations | Map of weather stations | Latest weather observations for VIC | Other Formats
Station Details ID: 088109 Name: MANGALORE AIRPORT Lat: -36.89 Lon: 145.19 Height: 140.8 m
Data from the previous 72 hours. | See also: Recent months at Mangalore
Date/Time
EDT
Temp
°C
App
Temp
°C
Dew
Point
Rel
Hum
%
Delta-T
°C
Wind Press
QNH
hPa
Press
MSL
hPa
Rain
since 9 am
mm
Dir
 
Spd
km/h
Gust
km/h
Spd
kts
Gust
kts
26/03:00pm 21.9 19.2 7.3 39 7.6 S 11 17 6 9 1012.5 1012.4 0.0
26/02:30pm 21.9 19.0 8.1 41 7.3 SSW 13 17 7 9 1012.6 1012.5 0.0
26/02:00pm 22.0 18.5 8.9 43 7.0 SW 17 22 9 12 1012.9 1012.8 0.0
26/01:30pm 22.4 18.3 10.2 46 6.7 WSW 22 26 12 14 1012.6 1012.5 0.0
26/01:00pm 21.8 18.9 9.7 46 6.6 SW 15 24 8 13 1012.2 1012.1 0.0
26/12:30pm 22.2 19.3 11.0 49 6.2 SW 17 20 9 11 1012.4 1012.3 0.0
26/12:00pm 21.8 19.3 11.2 51 5.9 SSW 15 24 8 13 1012.7 1012.6 0.0
26/11:30am 20.4 18.0 10.2 52 5.5 SSW 13 22 7 12 1012.5 1012.4 0.0
26/11:00am 20.3 17.3 10.7 54 5.3 SSW 17 26 9 14 1013.0 1012.9 0.0
26/10:30am 18.3 15.1 9.9 58 4.5 SSW 17 24 9 13 1013.0 1012.9 0.0
26/10:00am 17.4 13.2 9.6 60 4.1 S 22 30 12 16 1013.0 1012.9 0.0
26/09:30am 16.8 13.3 10.2 65 3.5 SSW 19 22 10 12 1012.9 1012.8 0.0
26/09:00am 15.0 11.1 9.6 70 2.8 S 20 30 11 16 1012.7 1012.6 0.0
26/08:30am 14.2 10.4 9.8 75 2.3 S 20 33 11 18 1012.7 1012.6 0.0
26/08:00am 13.4 9.7 10.0 80 1.8 S 20 32 11 17 1012.9 1012.8 0.0
26/07:30am 12.4 9.9 9.8 84 1.3 SSW 13 19 7 10 1012.3 1012.2 0.0
26/07:00am 11.7 8.8 9.6 87 1.1 S 15 20 8 11 1012.3 1012.2 0.0
26/06:30am 11.3 8.0 9.4 88 1.0 SSW 17 24 9 13 1011.9 1011.8 0.0
26/06:00am 11.2 8.3 9.6 90 0.8 S 15 19 8 10 1011.6 1011.5 0.0
26/05:30am 11.2 7.5 9.5 89 0.9 S 19 24 10 13 1011.9 1011.8 0.0
26/05:00am 11.1 8.1 9.4 89 0.9 SSW 15 20 8 11 1011.7 1011.6 0.0
26/04:30am 11.1 7.5 9.7 91 0.7 S 19 22 10 12 1011.5 1011.4 0.0
26/04:00am 11.0 8.4 9.4 90 0.8 SSW 13 19 7 10 1011.1 1011.1 0.0
26/03:30am 11.3 8.4 9.6 89 0.9 SSW 15 24 8 13 1011.5 1011.4 0.0
26/03:00am 11.5 8.2 9.6 88 1.0 SSW 17 20 9 11 1011.8 1011.7 0.0
26/02:30am 11.6 8.3 9.7 88 1.0 SSW 17 20 9 11 1011.9 1011.8 0.0
26/02:00am 11.8 8.9 9.7 87 1.1 SSW 15 20 8 11 1012.3 1012.2 0.0
26/01:30am 11.9 8.6 9.6 86 1.2 SSW 17 24 9 13 1012.7 1012.6 0.0
26/01:00am 12.0 8.7 9.7 86 1.2 SSW 17 24 9 13 1013.1 1013.0 0.0
26/12:30am 12.3 8.5 9.9 85 1.2 SSW 20 26 11 14 1013.4 1013.3 0.0
26/12:00am 12.3 9.0 9.7 84 1.3 SSW 17 26 9 14 1013.5 1013.4 0.0
 
Date/Time
EDT
Temp
°C
App
Temp
°C
Dew
Point
Rel
Hum
%
Delta-T
°C
Wind Press
QNH
hPa
Press
MSL
hPa
Rain
since 9 am
mm
Dir
 
Spd
km/h
Gust
km/h
Spd
kts
Gust
kts
25/11:30pm 12.8 9.1 9.6 81 1.6 SSW 19 26 10 14 1013.6 1013.5 0.0
25/11:00pm 13.1 9.3 9.7 80 1.8 S 20 30 11 16 1013.7 1013.6 0.0
25/10:30pm 13.3 9.1 9.7 79 1.9 S 22 32 12 17 1013.5 1013.4 0.0
25/10:00pm 13.9 9.3 9.7 76 2.2 SSW 24 35 13 19 1013.6 1013.5 0.0
25/09:30pm 14.6 10.9 10.2 75 2.3 SSW 20 30 11 16 1013.3 1013.2 0.0
25/09:00pm 15.4 10.6 10.4 72 2.7 SSW 26 37 14 20 1013.0 1012.9 0.0
25/08:30pm 16.2 12.6 10.5 69 3.0 SSW 20 28 11 15 1012.7 1012.6 0.0
25/08:00pm 17.4 13.0 10.5 64 3.7 S 24 35 13 19 1012.4 1012.3 0.0
25/07:30pm 18.5 14.6 10.8 61 4.2 SSW 22 33 12 18 1012.2 1012.1 0.0
25/07:00pm 20.2 16.8 11.1 56 5.0 SSW 20 28 11 15 1011.8 1011.7 0.0
25/06:30pm 21.5 18.2 11.5 53 5.6 SSW 20 26 11 14 1011.6 1011.5 0.0
25/06:00pm 22.2 19.2 11.9 52 5.8 SSW 19 26 10 14 1011.5 1011.4 0.0
25/05:30pm 23.3 20.7 12.0 49 6.4 SSW 17 24 9 13 1011.5 1011.4 0.0
25/05:00pm 24.3 21.1 11.3 44 7.4 SSW 19 28 10 15 1011.7 1011.6 0.0
25/04:30pm 25.5 22.6 10.9 40 8.2 SSW 17 24 9 13 1011.9 1011.8 0.0
25/04:00pm 24.5 21.3 10.0 40 8.0 SSW 17 22 9 12 1012.2 1012.1 0.0
25/03:30pm 25.2 23.1 12.4 45 7.4 SSW 15 22 8 12 1012.5 1012.4 0.0
25/03:00pm 24.1 21.7 11.4 45 7.2 SW 15 20 8 11 1013.0 1012.9 0.0
25/02:30pm 24.8 22.5 10.3 40 8.1 WSW 13 19 7 10 1013.3 1013.2 0.0
25/02:00pm 25.1 22.7 10.2 39 8.3 SW 13 17 7 9 1013.8 1013.7 0.0
25/01:52pm 24.6 21.8 10.1 40 8.0 WSW 15 19 8 10 1014.0 1013.9 0.0
25/01:32pm 24.4 21.7 10.3 41 7.8 WSW 15 20 8 11 1014.1 1014.0 0.0
25/01:30pm 24.7 22.1 10.6 41 7.9 WSW 15 20 8 11 1014.1 1014.0 0.0
25/01:00pm 24.3 21.2 11.6 45 7.2 WSW 19 24 10 13 1014.5 1014.4 0.0
25/12:30pm 24.0 21.2 12.6 49 6.6 WSW 19 22 10 12 1014.6 1014.5 0.0
25/12:00pm 23.8 21.0 11.5 46 7.0 SSW 17 24 9 13 1014.9 1014.8 0.0
25/11:30am 22.8 19.8 11.8 50 6.2 SW 19 24 10 13 1015.3 1015.2 0.0
25/11:00am 21.6 18.5 10.4 49 6.1 S 17 22 9 12 1015.3 1015.2 0.0
25/10:30am 20.7 17.5 11.3 55 5.2 SSW 19 24 10 13 1015.4 1015.3 0.0
25/10:00am 19.7 16.9 11.2 58 4.7 SSW 17 22 9 12 1015.7 1015.7 0.0
25/09:30am 18.5 15.8 11.6 64 3.8 SSW 17 22 9 12 1015.8 1015.8 0.0
25/09:00am 17.3 14.0 11.6 69 3.1 SSW 20 26 11 14 1015.7 1015.7 0.0
25/08:30am 16.2 12.9 11.6 74 2.5 S 20 28 11 15 1016.0 1016.0 0.0
25/08:00am 15.4 12.9 12.2 81 1.8 SSW 17 24 9 13 1016.0 1016.0 0.0
25/07:30am 14.6 12.4 12.1 85 1.4 SSW 15 22 8 12 1015.6 1015.5 0.0
25/07:00am 13.7 11.1 11.9 89 1.0 S 17 22 9 12 1015.4 1015.3 0.0
25/06:30am 13.5 10.9 11.9 90 0.9 SSW 17 22 9 12 1015.4 1015.3 0.0
25/06:00am 13.7 11.2 12.4 92 0.7 SSW 17 22 9 12 1015.1 1015.0 0.0
25/05:30am 13.5 11.8 12.6 94 0.5 S 13 17 7 9 1014.9 1014.8 0.0
25/05:00am 13.8 11.8 12.7 93 0.6 S 15 22 8 12 1014.9 1014.8 0.0
25/04:30am 13.8 11.8 12.7 93 0.6 SSW 15 22 8 12 1014.6 1014.5 0.0
25/04:00am 13.9 11.5 12.6 92 0.7 SSW 17 24 9 13 1014.4 1014.3 0.0
25/03:30am 14.0 12.0 12.7 92 0.7 SSW 15 20 8 11 1014.3 1014.2 0.0
25/03:00am 14.3 12.0 12.9 91 0.8 SSW 17 24 9 13 1014.4 1014.3 0.0
25/02:30am 14.3 12.8 13.0 92 0.7 SSW 13 19 7 10 1014.4 1014.3 0.0
25/02:00am 14.4 12.6 13.3 93 0.6 S 15 20 8 11 1014.5 1014.4 0.0
25/01:30am 14.3 12.0 13.0 92 0.7 SSW 17 24 9 13 1014.6 1014.5 0.0
25/01:00am 14.8 12.2 13.2 90 0.9 SSW 19 24 10 13 1014.6 1014.5 0.0
25/12:30am 15.2 12.5 12.9 86 1.3 SSW 19 24 10 13 1014.5 1014.4 0.0
25/12:00am 15.9 13.2 13.0 83 1.6 SSW 19 24 10 13 1014.5 1014.4 0.0
 
Date/Time
EDT
Temp
°C
App
Temp
°C
Dew
Point
Rel
Hum
%
Delta-T
°C
Wind Press
QNH
hPa
Press
MSL
hPa
Rain
since 9 am
mm
Dir
 
Spd
km/h
Gust
km/h
Spd
kts
Gust
kts
24/11:30pm 17.2 14.3 12.9 76 2.4 SSW 20 30 11 16 1014.4 1014.3 0.0
24/11:00pm 18.6 15.9 10.4 59 4.4 SW 15 22 8 12 1014.0 1013.9 0.0
24/10:30pm 16.2 16.1 9.4 64 3.6 CALM 0 0 0 0 1013.4 1013.3 0.0
24/10:00pm 16.2 14.5 8.4 60 4.0 N 7 9 4 5 1013.2 1013.1 0.0
24/09:30pm 17.1 16.5 8.8 58 4.3 WNW 2 9 1 5 1013.1 1013.0 0.0
24/09:00pm 19.4 19.0 8.1 48 5.9 CALM 0 0 0 0 1012.9 1012.8 0.0
24/08:30pm 19.7 17.7 8.7 49 5.8 WNW 9 11 5 6 1012.3 1012.2 0.0
24/08:00pm 22.4 22.0 8.1 40 7.6 CALM 0 0 0 0 1012.2 1012.1 0.0
24/07:30pm 25.2 22.7 6.4 30 9.8 WNW 9 9 5 5 1011.8 1011.7 0.0
24/07:00pm 28.2 25.9 7.4 27 11.2 NNW 9 11 5 6 1011.4 1011.3 0.0
24/06:30pm 29.7 27.0 5.7 22 12.7 NNW 9 13 5 7 1010.9 1010.9 0.0
24/06:00pm 30.5 27.8 5.7 21 13.2 W 9 15 5 8 1010.7 1010.7 0.0
24/05:30pm 30.7 27.1 6.6 22 13.0 WNW 15 20 8 11 1010.7 1010.7 0.0
24/05:00pm 30.5 26.1 5.0 20 13.4 W 17 24 9 13 1010.6 1010.6 0.0
24/04:30pm 30.2 26.4 7.4 24 12.4 NNW 17 24 9 13 1010.7 1010.7 0.0
24/04:00pm 29.9 27.2 8.9 27 11.7 W 13 20 7 11 1010.9 1010.9 0.0
24/03:30pm 30.1 26.4 9.6 28 11.6 WNW 19 24 10 13 1011.0 1011.0 0.0
24/03:00pm 29.6 26.4 11.2 32 10.7 W 19 30 10 16 1011.1 1011.1 0.0
24/02:30pm 28.7 25.9 9.9 31 10.6 WNW 15 28 8 15 1011.7 1011.6 0.0
24/02:00pm 28.8 26.3 12.2 35 9.7 W 17 24 9 13 1011.8 1011.7 0.0
24/01:30pm 28.4 25.4 12.7 38 9.3 WNW 20 28 11 15 1012.0 1011.9 0.0
24/01:00pm 27.5 26.1 13.4 41 8.4 NW 13 22 7 12 1012.0 1011.9 0.0
24/12:30pm 27.4 25.5 13.0 41 8.5 NW 15 20 8 11 1012.4 1012.3 0.0
24/12:00pm 26.9 25.2 13.6 44 7.9 NNW 15 22 8 12 1012.6 1012.5 0.0
24/11:30am 26.2 23.4 12.6 43 7.9 NNW 19 22 10 12 1012.7 1012.6 0.0
24/11:00am 26.0 23.4 12.1 42 8.0 N 17 24 9 13 1012.7 1012.6 0.0
24/10:30am 25.3 22.3 11.8 43 7.7 N 19 26 10 14 1012.7 1012.6 0.0
24/10:00am 24.7 20.6 11.3 43 7.6 N 24 32 13 17 1012.6 1012.5 0.0
24/09:30am 24.3 19.3 10.9 43 7.5 NNE 28 35 15 19 1012.7 1012.6 0.0
24/09:00am 23.2 18.1 10.6 45 7.0 NNE 28 39 15 21 1012.8 1012.7 0.0
24/08:30am 22.6 17.9 10.7 47 6.6 NNE 26 35 14 19 1012.9 1012.8 0.0
24/08:00am 21.8 18.5 11.5 52 5.8 NNE 20 32 11 17 1013.1 1013.0 0.0
24/07:30am 20.7 17.3 11.3 55 5.2 NE 20 30 11 16 1012.6 1012.5 0.0
24/07:00am 19.5 16.3 11.8 61 4.3 NE 20 28 11 15 1012.2 1012.1 0.0
24/06:46am 19.3 16.9 12.6 65 3.8 NNE 17 24 9 13 1012.2 1012.1 0.0
24/06:30am 14.3 13.8 13.7 96 0.3 SW 9 17 5 9 1012.2 1012.1 0.0
24/06:00am 12.3 11.7 11.7 96 0.3 SW 6 7 3 4 1012.1 1012.0 0.0
24/05:30am 12.4 11.8 11.8 96 0.3 SW 6 9 3 5 1012.0 1011.9 0.0
24/05:00am 12.9 12.2 12.1 95 0.4 SW 7 9 4 5 1011.7 1011.6 0.0
24/04:30am 13.2 12.6 12.3 94 0.5 SSW 7 11 4 6 1011.5 1011.4 0.0
24/04:00am 13.7 13.2 12.8 94 0.5 SW 7 11 4 6 1011.7 1011.6 0.0
24/03:30am 14.2 13.5 13.2 94 0.6 SSW 9 13 5 7 1011.7 1011.6 0.0
24/03:00am 14.4 13.0 13.3 93 0.6 SSW 13 19 7 10 1012.0 1011.9 0.0
24/02:30am 14.6 13.2 13.5 93 0.6 SSW 13 17 7 9 1012.3 1012.2 0.0
24/02:00am 14.7 12.9 13.4 92 0.7 SSW 15 20 8 11 1012.7 1012.6 0.0
24/01:30am 14.8 13.0 13.3 91 0.8 SSW 15 19 8 10 1013.1 1013.0 0.0
24/01:00am 15.0 12.8 13.4 90 0.9 SSW 17 22 9 12 1013.3 1013.2 0.0
24/12:30am 15.1 12.5 13.3 89 1.0 SSW 19 26 10 14 1013.4 1013.3 0.0
24/12:00am 15.3 12.5 13.3 88 1.1 SSW 20 26 11 14 1013.5 1013.4 0.0
 
Date/Time
EDT
Temp
°C
App
Temp
°C
Dew
Point
Rel
Hum
%
Delta-T
°C
Wind Press
QNH
hPa
Press
MSL
hPa
Rain
since 9 am
mm
Dir
 
Spd
km/h
Gust
km/h
Spd
kts
Gust
kts
23/11:30pm 15.6 12.9 13.4 87 1.2 SSW 20 26 11 14 1013.5 1013.4 0.0
23/11:00pm 16.0 13.9 13.5 85 1.4 SSW 17 24 9 13 1013.6 1013.5 0.0
23/10:30pm 16.2 14.1 13.5 84 1.5 SSW 17 24 9 13 1013.8 1013.7 0.0
23/10:00pm 16.6 14.0 13.3 81 1.9 SSW 19 26 10 14 1013.6 1013.5 0.0
23/09:30pm 17.1 14.5 13.2 78 2.2 SSW 19 26 10 14 1013.4 1013.3 0.0
23/09:00pm 17.8 15.2 13.3 75 2.6 SSW 19 24 10 13 1013.2 1013.1 0.0
23/08:30pm 18.6 15.9 13.5 72 2.9 SSW 20 26 11 14 1013.0 1012.9 0.0
23/08:00pm 19.5 16.8 13.4 68 3.5 SSW 20 30 11 16 1012.6 1012.5 0.0
23/07:30pm 20.7 17.7 13.6 64 4.1 SSW 22 30 12 16 1012.6 1012.5 0.0
23/07:00pm 22.1 19.2 14.0 60 4.7 SSW 22 30 12 16 1012.4 1012.3 0.0
23/06:30pm 23.1 20.6 14.1 57 5.3 SSW 20 28 11 15 1012.4 1012.3 0.0
23/06:00pm 23.8 20.6 14.2 55 5.7 SSW 24 33 13 18 1012.5 1012.4 0.0
23/05:30pm 24.6 21.3 14.1 52 6.2 SSW 24 33 13 18 1012.7 1012.6 0.0
23/05:00pm 25.1 22.3 14.3 51 6.4 SSW 22 30 12 16 1012.8 1012.7 0.0
23/04:30pm 25.2 22.0 14.3 50 6.5 SSW 24 33 13 18 1012.9 1012.8 0.0
23/04:00pm 25.8 23.1 14.6 50 6.7 SSW 22 30 12 16 1013.0 1012.9 0.0
23/03:30pm 25.9 23.3 15.0 51 6.6 SSW 22 32 12 17 1013.4 1013.3 0.0

Other Formats:

Comma delimited format used in spreadsheet applications
http://www.bom.gov.au/fwo/IDV60801/IDV60801.94874.axf

JavaScript Object Notation format (JSON) in row-major order
http://www.bom.gov.au/fwo/IDV60801/IDV60801.94874.json